Sherman, TX

7:06 AM CST en Enero 31, 2015 (GMT -0600)
SE Jct 56/11 | Change Station
CLOSE
Current Station
Estación meteorológica personal
Location: Sherman, TX
Altura: 746 ft
Estaciones meteorológicas cercanas

Alt 746 ft 33.63 °N, 96.58 °W | Updated 10 minutes ago

Parcialmente nublado
Parcialmente nublado
41.7 ° F
Sensación térmica 42 ° F
N
3.0
Viento Variable Viento desde ENE
Gusts 3.0 mph

Hoy
Alta -- | Baja -- ° F
--% Posibilidad de precipitaciones
Ayer
Alta -- | Baja -- ° F
Precip. -- pul
7:23 AM 5:56 PM
Gibosa creciente, 89% visible
Presión 30.24 pul
Visibilidad 10.0 Millas
Nubes Muy nublado 5500 ft
Vientos helados 42 ° F
Punto de rocío 32 ° F
Humedad 69%
Precipitaciones 0.00 pul
Espesor de la nieve No disponible.
UV 0 de una escala de 12
Polen 7.00 de una escala de 12
Calidad del aire No disponible.
Flu Activity No disponible.
METAR KGYI 311255Z AUTO 10007KT 10SM BKN055 06/01 A3024 RMK AO2 T00600012

More Conditions Fewer Conditions

Presión 30.24 pul
Visibilidad 10.0 Millas
Nubes Muy nublado 5500 ft
Vientos helados 42 ° F
Punto de rocío 32 ° F
Humedad 69%
Precipitaciones 0.00 pul
Espesor de la nieve No disponible.
UV 0 de una escala de 12
Polen 7.00 de una escala de 12
Calidad del aire No disponible.
Flu Activity No disponible.
METAR KGYI 311255Z AUTO 10007KT 10SM BKN055 06/01 A3024 RMK AO2 T00600012

More Conditions Fewer Conditions

10-Day Weather Forecast

Almanac

Astronomía

Jan. 31, 2015 Salida Puesta
Hora real
Crepúsculo civil
Crepúsculo náutico
Crepúsculo astronómico
Luna
Horas de luz
Horas de luz
Tomorrow will be .
, % of the Moon is Illuminated

Extremos de hoy

Máximos del estado Bajos del estado

Community

WunderPhotos

Upload Photos

1,792,041 ¡fotos cargadas!

WunderBlogs® & News

Nearby

Calidad del aire

  Calidad del aire Índice AQ Contaminante
Not available.

Grosos de nieve

Estación Profundido Altura

Actividad de terremotos

Ciudad Distance Mag. Tiempo y dato
Magnitud mínima muestra es 2,5.

Temperaturas de aguas costeras

Lugar Temperatura

Estaciones meteorológicas cercanas